map of GPZ home
GPZ - Airport
Location
City:  Grand Rapids, Minnesota, United States
Name:Grand Rapids/Itasca Co-Gordon Newstrom Field
ICAO:KGPZ
IATA:GPZ
FAA LID:GPZ

Details
Type:Airport (Airfield)
Use:Public/Civil
Latitude:4712'33"N (47.209284)
Longitude:9330'36"W (-93.509944)
Datum:WGS 1984
Elevation:1355 ft (413 m)
Variation:0.17E (WMM2015v2 magnetic declination)
-0.03 annual change
Runways:2
Longest:5756 × 100 ft (1754 × 30.5 m), paved

Time
Time Zone:UTC-6 (DST-5)
Local Time:

Weather
METAR:KGPZ 041415Z AUTO 01008KT 1SM -SN BR BKN013 OVC023 M13/M15 A2979 RMK AO2 P0000 FZRANO

Related Locations
Nearby:
Farthest:YWKS: 10810 mi / 17397 km
Wilkins Runway (Casey), Upper Peterson Glacier, AQ

Find:

   beyond  
but within

Other Information
Maps:
NOTAMs:
Links:
Sources:

  
  • flag of United States
  • flag of Minnesota
  

Sectional Chart

Flight Planning
at skyvector.com

Satellite Image

Google Maps Satellite view

 

Copyright © 2004-2019 Karl L. Swartz. All rights reserved.
The Great Circle Mapper name and logo are trademarks of the Great Circle Mapper.
All other trademarks mentioned herein belong to their respective owners.
Please see credits for attibutions and further copyright information.

  Follow gcmap on Facebook Follow gcmap on Twitter GCmap on LinkedIn

hCard Microformat

Geo Microformat